FWKI

Details ICAO FWKI (LLW)
Name KAMUZU INTL
Region Malawi
Timezone Africa/Blantyre (UTC+2.0)
Plans Departing 48
Arriving 50
Stats Elevation 4,035 ft / 1,230 m (AMSL)
Location -13.789376° 33.781000°
Runways 1
Magnetic Variation 5.224° W
Sunrise 2018-05-25 04:01:05 UTC / 2018-05-25 06:01:05 Local
Sunset 2018-05-25 15:25:24 UTC / 2018-05-25 17:25:24 Local
Advertisement - Login to hide

Runways

ID Width Length Bearing (true) Bearing (mag) Surface Threshold Offset Overrun Length
14 148 ft / 45 m 11,631 ft / 3,545 m 130.05° 135.27° Asphalt 0 ft / 0 m 200 ft / 61 m
32 148 ft / 45 m 11,631 ft / 3,545 m 310.05° 315.27° Asphalt 0 ft / 0 m 200 ft / 61 m

Approach Navaids

Runway Type Ident Frequency Range Bearing (true) Bearing (mag) Slope Elevation
14 Localiser KM 109.90 MHz 18 nm / 33 km 129.84° 135.06° - 4,035 ft / 1,230 m (AMSL)

Map

Weather


0- 5 10 15 20 25 30 35+ Temperature / ° C

Clouds and Precipitation
Forecast for 2018-05-25 12:00 UTC. Updated an hour ago

Ground ~20,000 ft ~40,000 ft Winds

METAR

FWKI 251000Z 08013KT 9999 BKN025 24/15 Q1022 NOSIG

TAF

Not found

Frequencies

Tower 118.70 MHz LUMBADZI TWR
Approach 128.00 MHz APP
Approach 124.70 MHz RADAR
Warning: Do not use this data for real-world aviation or navigation. No guarantee of current accuracy is given.